Time;durP1;ratioP1;P1;durP2;ratioP2;P2;SDS_P1;SDS_P2;PMS_P1;PMS_P2;Temp;Humidity;BMP_temperature;BMP_pressure;BME280_temperature;BME280_humidity;BME280_pressure;Samples;Min_cycle;Max_cycle;Signal;HPM_P1;HPM_P2
2021/12/21 00:02:23;;;;;;;;;;;-2.50;96.90;;;;;;4966171;28;20082;-75
2021/12/21 00:04:48;;;;;;;;;;;-2.50;96.90;;;;;;4964629;28;19922;-75
2021/12/21 00:07:14;;;;;;;;;;;-2.40;96.90;;;;;;4965978;29;19906;-75
2021/12/21 00:09:40;;;;;;;;;;;-2.40;96.90;;;;;;4965751;28;19918;-77
2021/12/21 00:12:06;;;;;;;;;;;-2.40;96.90;;;;;;4966862;28;19913;-76
2021/12/21 00:14:47;;;;;;;;;;;-2.40;96.90;;;;;;4964912;28;19906;-75
2021/12/21 00:17:20;;;;;;;;;;;-2.60;96.90;;;;;;4965574;29;19910;-79
2021/12/21 00:20:11;;;;;;;;;;;-2.60;96.90;;;;;;4965661;29;19985;-78
2021/12/21 00:25:05;;;;;;;;;;;-2.60;96.90;;;;;;4966321;28;19938;-78
2021/12/21 00:27:31;;;;;;;;;;;-2.60;96.80;;;;;;4949431;29;19906;-77
2021/12/21 00:29:56;;;;;;;;;;;-2.60;96.80;;;;;;4965518;29;19910;-78
2021/12/21 00:32:23;;;;;;;;;;;-2.80;96.80;;;;;;4966228;28;20201;-77
2021/12/21 00:34:49;;;;;;;;;;;-2.80;97.10;;;;;;4965139;29;19929;-75
2021/12/21 00:37:14;;;;;;;;;;;-2.70;97.10;;;;;;4965235;28;19910;-75
2021/12/21 00:39:40;;;;;;;;;;;-2.70;96.90;;;;;;4949137;29;19906;-76
2021/12/21 00:42:06;;;;;;;;;;;-2.70;96.90;;;;;;4966471;28;19914;-75
2021/12/21 00:44:32;;;;;;;;;;;-2.80;96.90;;;;;;4965857;28;20268;-75
2021/12/21 00:46:58;;;;;;;;;;;-2.80;96.90;;;;;;4948876;29;19910;-75
2021/12/21 00:49:24;;;;;;;;;;;-2.90;97.00;;;;;;4965032;28;20364;-77
2021/12/21 00:51:50;;;;;;;;;;;-3.00;97.00;;;;;;4963756;29;19906;-76
2021/12/21 00:54:16;;;;;;;;;;;-3.00;97.10;;;;;;4963378;28;19976;-78
2021/12/21 00:56:41;;;;;;;;;;;-2.90;97.00;;;;;;4963676;29;19906;-76
2021/12/21 00:59:07;;;;;;;;;;;-3.00;96.90;;;;;;4963373;28;20327;-75
2021/12/21 01:01:35;;;;;;;;;;;-3.10;97.00;;;;;;4963649;29;19978;-75
2021/12/21 01:04:03;;;;;;;;;;;-3.10;97.20;;;;;;4963234;28;19913;-76
2021/12/21 01:09:11;;;;;;;;;;;-3.10;97.30;;;;;;4964655;28;19915;-76
2021/12/21 01:11:48;;;;;;;;;;;-3.10;97.10;;;;;;4964684;29;19965;-73
2021/12/21 01:17:03;;;;;;;;;;;-3.20;97.30;;;;;;4964276;28;19914;-74
2021/12/21 01:23:11;;;;;;;;;;;-3.20;97.40;;;;;;4984367;28;19906;-74
2021/12/21 01:25:41;;;;;;;;;;;-3.20;97.40;;;;;;4962946;28;19938;-73
2021/12/21 01:28:12;;;;;;;;;;;-3.30;97.40;;;;;;4963820;28;20261;-74
2021/12/21 01:35:45;;;;;;;;;;;-3.20;96.90;;;;;;4963977;29;19906;-74
2021/12/21 01:51:06;;;;;;;;;;;-3.40;96.70;;;;;;4963052;29;19954;-74
2021/12/21 01:53:32;;;;;;;;;;;-3.30;96.80;;;;;;4964123;28;19910;-74
2021/12/21 01:55:57;;;;;;;;;;;-3.30;96.70;;;;;;4962682;29;20003;-75
2021/12/21 01:58:23;;;;;;;;;;;-3.30;96.40;;;;;;4962543;28;20086;-75
2021/12/21 02:00:49;;;;;;;;;;;-3.40;96.40;;;;;;4962570;28;19910;-76
2021/12/21 02:03:15;;;;;;;;;;;-3.40;96.50;;;;;;4963976;28;19982;-75
2021/12/21 02:05:41;;;;;;;;;;;-3.50;96.60;;;;;;4963727;29;19906;-75
2021/12/21 02:08:06;;;;;;;;;;;-3.40;96.60;;;;;;4962704;28;20201;-76
2021/12/21 02:10:33;;;;;;;;;;;-3.40;96.50;;;;;;4963753;28;19938;-76
2021/12/21 02:12:58;;;;;;;;;;;-3.40;96.50;;;;;;4962313;28;19925;-76
2021/12/21 02:15:25;;;;;;;;;;;-3.40;96.20;;;;;;4961863;28;20101;-76
2021/12/21 02:23:05;;;;;;;;;;;-3.50;96.20;;;;;;4963288;28;19907;-77
2021/12/21 02:30:24;;;;;;;;;;;-3.40;96.20;;;;;;4966183;29;19977;-75
2021/12/21 02:32:50;;;;;;;;;;;-3.40;96.10;;;;;;4966484;29;19907;-75
2021/12/21 02:35:16;;;;;;;;;;;-3.60;96.20;;;;;;4967251;28;19944;-75
2021/12/21 02:37:41;;;;;;;;;;;-3.60;96.50;;;;;;4966324;29;19911;-75
2021/12/21 02:40:08;;;;;;;;;;;-3.60;96.40;;;;;;4966268;28;19914;-76
2021/12/21 02:42:33;;;;;;;;;;;-3.60;96.20;;;;;;4950198;29;19913;-76
2021/12/21 02:44:59;;;;;;;;;;;-3.60;96.20;;;;;;4965741;28;19955;-75
2021/12/21 02:47:25;;;;;;;;;;;-3.50;96.20;;;;;;4966285;28;19961;-75
2021/12/21 02:49:51;;;;;;;;;;;-3.50;96.20;;;;;;4966207;28;20224;-75
2021/12/21 02:52:16;;;;;;;;;;;-3.50;96.00;;;;;;4967386;28;19906;-75
2021/12/21 02:54:42;;;;;;;;;;;-3.60;96.10;;;;;;4965853;29;19976;-75
2021/12/21 02:57:08;;;;;;;;;;;-3.50;96.20;;;;;;4965842;29;19910;-75
2021/12/21 02:59:34;;;;;;;;;;;-3.50;96.10;;;;;;4933900;29;20105;-75
2021/12/21 03:01:59;;;;;;;;;;;-3.60;96.00;;;;;;4965965;29;19906;-74
2021/12/21 03:04:25;;;;;;;;;;;-3.70;96.10;;;;;;4965860;28;19933;-78
2021/12/21 03:11:56;;;;;;;;;;;-3.70;96.00;;;;;;4965703;29;19915;-77
2021/12/21 03:14:22;;;;;;;;;;;-3.80;96.20;;;;;;4965725;28;20244;-77
2021/12/21 03:16:48;;;;;;;;;;;-3.80;96.40;;;;;;4966801;29;19925;-77
2021/12/21 03:19:14;;;;;;;;;;;-3.90;96.50;;;;;;4966894;28;19913;-78
2021/12/21 03:21:39;;;;;;;;;;;-3.90;96.70;;;;;;4965680;29;19910;-78
2021/12/21 03:24:06;;;;;;;;;;;-4.00;97.00;;;;;;4964551;28;20193;-78
2021/12/21 03:26:31;;;;;;;;;;;-3.90;96.90;;;;;;4949570;29;19907;-77
2021/12/21 03:28:57;;;;;;;;;;;-3.90;96.70;;;;;;4965476;29;19994;-77
2021/12/21 03:31:23;;;;;;;;;;;-3.90;96.80;;;;;;4965599;29;19969;-77
2021/12/21 03:33:49;;;;;;;;;;;-4.00;96.60;;;;;;4949699;29;19913;-77
2021/12/21 03:36:16;;;;;;;;;;;-3.90;96.50;;;;;;4949413;29;19907;-77
2021/12/21 03:38:52;;;;;;;;;;;-3.90;96.50;;;;;;4934156;29;19997;-77
2021/12/21 03:41:18;;;;;;;;;;;-3.90;96.70;;;;;;4950389;29;20217;-77
2021/12/21 03:43:44;;;;;;;;;;;-3.80;96.60;;;;;;4966569;28;19953;-72
2021/12/21 03:46:13;;;;;;;;;;;-3.80;96.50;;;;;;4965300;29;19917;-71
2021/12/21 03:48:42;;;;;;;;;;;-3.90;96.60;;;;;;4965516;28;19906;-74
2021/12/21 03:51:09;;;;;;;;;;;-3.80;96.60;;;;;;4965510;29;19907;-74
2021/12/21 03:53:35;;;;;;;;;;;-3.80;96.60;;;;;;4965558;29;20193;-74
2021/12/21 03:56:48;;;;;;;;;;;-3.70;96.50;;;;;;4965615;28;19906;-74
2021/12/21 03:58:46;;;;;;;;;;;-3.70;96.40;;;;;;4969598;28;19934;-74
2021/12/21 04:01:12;;;;;;;;;;;-3.90;96.20;;;;;;4966726;29;20178;-74
2021/12/21 04:03:38;;;;;;;;;;;-3.90;96.30;;;;;;4966293;28;19930;-74
2021/12/21 04:06:04;;;;;;;;;;;-3.90;96.30;;;;;;4965547;28;20248;-74
2021/12/21 04:08:29;;;;;;;;;;;-3.90;96.40;;;;;;4966526;28;19913;-74
2021/12/21 04:10:55;;;;;;;;;;;-3.90;96.40;;;;;;4966375;29;19946;-74
2021/12/21 04:13:21;;;;;;;;;;;-4.00;96.40;;;;;;4965694;28;19906;-74
2021/12/21 04:15:50;;;;;;;;;;;-4.10;96.40;;;;;;4965545;29;20190;-74
2021/12/21 04:18:18;;;;;;;;;;;-4.10;96.80;;;;;;4964700;28;19990;-74
2021/12/21 04:20:44;;;;;;;;;;;-4.10;96.90;;;;;;4965969;28;19916;-74
2021/12/21 04:23:10;;;;;;;;;;;-4.10;96.90;;;;;;4964426;29;19933;-75
2021/12/21 04:25:36;;;;;;;;;;;-4.10;96.90;;;;;;4965170;28;19910;-75
2021/12/21 04:28:01;;;;;;;;;;;-4.10;96.70;;;;;;4964592;28;20193;-74
2021/12/21 04:30:27;;;;;;;;;;;-4.10;96.70;;;;;;4965439;28;19913;-73
2021/12/21 04:32:53;;;;;;;;;;;-4.10;96.80;;;;;;4964505;28;19910;-73
2021/12/21 04:35:20;;;;;;;;;;;-4.10;97.00;;;;;;4964083;29;19910;-73
2021/12/21 04:37:51;;;;;;;;;;;-4.10;97.00;;;;;;4965473;28;20189;-72
2021/12/21 04:40:20;;;;;;;;;;;-4.20;97.10;;;;;;4964240;29;19906;-72
2021/12/21 04:42:45;;;;;;;;;;;-4.10;97.00;;;;;;4965472;28;19922;-74
2021/12/21 04:45:11;;;;;;;;;;;-4.20;96.80;;;;;;4947559;29;19907;-73
2021/12/21 04:47:37;;;;;;;;;;;-4.20;96.90;;;;;;4965460;28;20253;-74
2021/12/21 04:50:03;;;;;;;;;;;-4.20;96.90;;;;;;4964046;29;20260;-74
2021/12/21 04:52:29;;;;;;;;;;;-4.10;96.90;;;;;;4964472;28;19909;-73
2021/12/21 04:54:57;;;;;;;;;;;-4.10;96.80;;;;;;4963415;29;19913;-73
2021/12/21 04:57:23;;;;;;;;;;;-4.10;96.50;;;;;;4948090;29;20208;-73
2021/12/21 04:59:49;;;;;;;;;;;-4.10;96.30;;;;;;4963309;29;19917;-74
2021/12/21 05:02:15;;;;;;;;;;;-4.10;96.40;;;;;;4964956;28;19907;-73
2021/12/21 05:04:40;;;;;;;;;;;-4.10;96.30;;;;;;4963512;29;19907;-74
2021/12/21 05:07:06;;;;;;;;;;;-4.10;96.40;;;;;;4963593;28;19906;-73
2021/12/21 05:09:40;;;;;;;;;;;-4.20;96.40;;;;;;5004582;23;20113;-70
2021/12/21 05:12:08;;;;;;;;;;;-4.30;96.50;;;;;;4991774;28;19965;-70
2021/12/21 05:14:33;;;;;;;;;;;-4.20;96.60;;;;;;4983470;28;19914;-71
2021/12/21 05:16:59;;;;;;;;;;;-4.20;96.50;;;;;;4984845;28;20366;-72
2021/12/21 05:19:25;;;;;;;;;;;-4.20;96.40;;;;;;4972444;28;19906;-71
2021/12/21 05:21:51;;;;;;;;;;;-4.20;96.30;;;;;;4963968;29;19907;-72
2021/12/21 05:24:16;;;;;;;;;;;-4.20;96.40;;;;;;4964891;28;19907;-72
2021/12/21 05:26:42;;;;;;;;;;;-4.20;96.40;;;;;;4965450;28;19930;-71
2021/12/21 05:29:08;;;;;;;;;;;-4.20;96.40;;;;;;4964248;28;20105;-71
2021/12/21 05:31:35;;;;;;;;;;;-4.20;96.30;;;;;;4966038;28;19918;-71
2021/12/21 05:34:00;;;;;;;;;;;-4.30;96.40;;;;;;4965968;28;19973;-72
2021/12/21 05:36:26;;;;;;;;;;;-4.30;96.40;;;;;;4964490;29;20021;-71
2021/12/21 05:38:57;;;;;;;;;;;-4.30;96.30;;;;;;4963973;28;19910;-73
2021/12/21 05:41:27;;;;;;;;;;;-4.40;96.40;;;;;;4964092;29;19906;-72
2021/12/21 05:43:53;;;;;;;;;;;-4.40;96.60;;;;;;4965164;28;19918;-72
2021/12/21 05:46:19;;;;;;;;;;;-4.30;96.50;;;;;;4963745;29;19906;-72
2021/12/21 05:48:45;;;;;;;;;;;-4.50;96.50;;;;;;4963876;28;19906;-72
2021/12/21 05:51:10;;;;;;;;;;;-4.30;96.60;;;;;;4963845;29;19909;-72
2021/12/21 05:53:36;;;;;;;;;;;-4.30;96.30;;;;;;4963590;29;19907;-72
2021/12/21 05:56:02;;;;;;;;;;;-4.40;96.30;;;;;;4963753;29;19907;-72
2021/12/21 05:58:27;;;;;;;;;;;-4.40;96.30;;;;;;4963826;28;19910;-72
2021/12/21 06:00:53;;;;;;;;;;;-4.30;96.30;;;;;;4964954;28;19937;-72
2021/12/21 06:03:19;;;;;;;;;;;-4.30;96.20;;;;;;4963852;28;19953;-72
2021/12/21 06:05:45;;;;;;;;;;;-4.40;96.30;;;;;;4964223;29;19913;-72
2021/12/21 06:08:11;;;;;;;;;;;-4.40;96.30;;;;;;4964745;28;19928;-72
2021/12/21 06:10:40;;;;;;;;;;;-4.40;96.30;;;;;;4965499;29;20260;-71
2021/12/21 06:26:41;;;;;;;;;;;-4.50;96.20;;;;;;4940168;29;19910;-74
2021/12/21 06:29:08;;;;;;;;;;;-4.50;96.30;;;;;;4953442;28;19920;-73
2021/12/21 06:31:33;;;;;;;;;;;-4.40;96.30;;;;;;4951544;29;20301;-73
2021/12/21 06:33:59;;;;;;;;;;;-4.50;96.50;;;;;;4949718;29;20049;-73
2021/12/21 06:36:25;;;;;;;;;;;-4.40;96.70;;;;;;4963272;28;19930;-73
2021/12/21 06:38:51;;;;;;;;;;;-4.40;96.70;;;;;;4946942;29;19985;-73
2021/12/21 06:41:17;;;;;;;;;;;-4.40;96.80;;;;;;4964175;28;19958;-73
2021/12/21 06:43:43;;;;;;;;;;;-4.40;96.60;;;;;;4964659;28;19907;-73
2021/12/21 06:51:33;;;;;;;;;;;-4.40;96.20;;;;;;4963448;29;19922;-73
2021/12/21 06:53:59;;;;;;;;;;;-4.40;96.20;;;;;;4961869;28;19906;-73
2021/12/21 06:56:25;;;;;;;;;;;-4.50;96.00;;;;;;4945933;29;19945;-74
2021/12/21 06:58:53;;;;;;;;;;;-4.60;96.10;;;;;;4961616;28;19926;-74
2021/12/21 07:01:19;;;;;;;;;;;-4.60;96.30;;;;;;4963030;28;19922;-73
2021/12/21 07:03:45;;;;;;;;;;;-4.60;96.30;;;;;;4961733;29;19969;-74
2021/12/21 07:06:11;;;;;;;;;;;-4.60;96.30;;;;;;4961628;29;19906;-74
2021/12/21 07:08:46;;;;;;;;;;;-4.60;96.30;;;;;;4961321;29;19910;-74
2021/12/21 07:11:25;;;;;;;;;;;-4.70;96.30;;;;;;4962122;29;19906;-75
2021/12/21 07:19:22;;;;;;;;;;;-4.70;96.20;;;;;;4955132;28;19910;-74
2021/12/21 07:21:48;;;;;;;;;;;-4.70;96.40;;;;;;4945452;29;20165;-74
2021/12/21 07:24:13;;;;;;;;;;;-4.70;96.30;;;;;;4948634;29;19945;-74
2021/12/21 07:26:39;;;;;;;;;;;-4.60;96.10;;;;;;4948882;29;20197;-75
2021/12/21 07:29:05;;;;;;;;;;;-4.60;96.10;;;;;;4947006;29;19925;-67
2021/12/21 07:31:30;;;;;;;;;;;-4.50;96.10;;;;;;4964487;28;19906;-66
2021/12/21 07:33:58;;;;;;;;;;;-4.50;96.00;;;;;;4948345;29;19910;-68
2021/12/21 07:36:25;;;;;;;;;;;-4.40;95.90;;;;;;4964782;28;19914;-76
2021/12/21 07:38:51;;;;;;;;;;;-4.40;95.70;;;;;;4934504;29;20034;-72
2021/12/21 07:41:17;;;;;;;;;;;-4.50;95.40;;;;;;4964874;28;19910;-71
2021/12/21 07:43:43;;;;;;;;;;;-4.50;95.40;;;;;;4964377;29;19954;-73
2021/12/21 07:46:08;;;;;;;;;;;-4.50;95.30;;;;;;4963904;29;19907;-67
2021/12/21 07:48:34;;;;;;;;;;;-4.60;95.40;;;;;;4964426;28;19985;-67
2021/12/21 07:51:00;;;;;;;;;;;-4.50;95.50;;;;;;4964808;29;19974;-67
2021/12/21 07:53:26;;;;;;;;;;;-4.50;95.50;;;;;;4965343;28;20227;-67
2021/12/21 07:55:52;;;;;;;;;;;-4.50;95.60;;;;;;4965613;28;19917;-67
2021/12/21 07:58:17;;;;;;;;;;;-4.50;95.80;;;;;;4964357;28;19918;-73
2021/12/21 08:00:43;;;;;;;;;;;-4.40;95.90;;;;;;4964466;29;19985;-72
2021/12/21 08:03:09;;;;;;;;;;;-4.40;95.60;;;;;;4963152;29;19922;-77
2021/12/21 08:05:36;;;;;;;;;;;-4.40;95.50;;;;;;4946038;29;19925;-81
2021/12/21 08:08:16;;;;;;;;;;;-4.40;95.50;;;;;;4948741;28;21325;-78
2021/12/21 08:10:49;;;;;;;;;;;-4.30;95.30;;;;;;4963678;29;20220;-78
2021/12/21 08:13:15;;;;;;;;;;;-4.30;95.30;;;;;;4964322;29;19914;-75
2021/12/21 08:15:41;;;;;;;;;;;-4.20;95.40;;;;;;4944144;28;19911;-75
2021/12/21 08:18:06;;;;;;;;;;;-4.10;95.40;;;;;;4929095;29;19917;-75
2021/12/21 08:20:32;;;;;;;;;;;-4.10;95.40;;;;;;4946424;29;19981;-75
2021/12/21 08:22:58;;;;;;;;;;;-4.00;95.40;;;;;;4947558;29;19981;-77
2021/12/21 08:25:26;;;;;;;;;;;-4.00;95.20;;;;;;4947313;29;19910;-76
2021/12/21 08:27:52;;;;;;;;;;;-4.10;95.30;;;;;;4944680;29;19914;-73
2021/12/21 08:30:18;;;;;;;;;;;-4.00;95.50;;;;;;4964465;28;19906;-74
2021/12/21 08:32:43;;;;;;;;;;;-3.90;95.60;;;;;;4929983;29;20114;-73
2021/12/21 08:35:12;;;;;;;;;;;-3.80;95.50;;;;;;4964950;28;19973;-74
2021/12/21 08:37:39;;;;;;;;;;;-3.80;95.30;;;;;;4929321;29;19911;-70
2021/12/21 08:40:07;;;;;;;;;;;-3.80;95.50;;;;;;4945758;29;19910;-73
2021/12/21 08:42:35;;;;;;;;;;;-3.80;95.50;;;;;;4929423;29;19913;-74
2021/12/21 08:45:06;;;;;;;;;;;-3.70;95.30;;;;;;4950798;29;19926;-72
2021/12/21 08:47:35;;;;;;;;;;;-3.80;95.30;;;;;;4963625;28;19906;-74
2021/12/21 08:50:01;;;;;;;;;;;-3.70;95.40;;;;;;4964732;28;19910;-74
2021/12/21 08:52:26;;;;;;;;;;;-3.60;95.40;;;;;;4963643;29;19910;-74
2021/12/21 08:54:52;;;;;;;;;;;-3.50;95.40;;;;;;4963711;29;20049;-76
2021/12/21 08:57:18;;;;;;;;;;;-3.50;95.50;;;;;;4963377;29;19926;-77
2021/12/21 08:59:43;;;;;;;;;;;-3.40;95.60;;;;;;4964205;28;19978;-77
2021/12/21 09:02:09;;;;;;;;;;;-3.30;95.40;;;;;;4927969;29;20165;-78
2021/12/21 09:04:35;;;;;;;;;;;-3.20;95.50;;;;;;4957930;29;19977;-76
2021/12/21 09:07:03;;;;;;;;;;;-3.00;95.60;;;;;;4964579;28;19910;-78
2021/12/21 09:09:32;;;;;;;;;;;-3.10;95.20;;;;;;4947915;29;19922;-71
2021/12/21 09:11:58;;;;;;;;;;;-3.00;95.30;;;;;;4964336;28;19914;-70
2021/12/21 09:14:23;;;;;;;;;;;-2.90;95.30;;;;;;4960576;29;19957;-73
2021/12/21 09:16:49;;;;;;;;;;;-2.80;95.40;;;;;;4962837;29;20033;-73
2021/12/21 09:19:16;;;;;;;;;;;-2.60;95.00;;;;;;4947538;29;20043;-72
2021/12/21 09:21:42;;;;;;;;;;;-2.60;94.70;;;;;;4947655;29;20251;-73
2021/12/21 09:24:09;;;;;;;;;;;-2.60;94.90;;;;;;4947396;29;19969;-73
2021/12/21 09:26:35;;;;;;;;;;;-2.50;95.00;;;;;;4947483;29;20220;-73
2021/12/21 09:29:01;;;;;;;;;;;-2.40;95.10;;;;;;4963225;28;19907;-73
2021/12/21 09:31:27;;;;;;;;;;;-2.30;95.10;;;;;;4962850;29;19921;-73
2021/12/21 09:33:53;;;;;;;;;;;-2.20;94.90;;;;;;4947316;29;20224;-73
2021/12/21 09:36:18;;;;;;;;;;;-2.00;94.80;;;;;;4947441;29;19907;-74
2021/12/21 09:38:44;;;;;;;;;;;-1.90;94.50;;;;;;4946796;29;20111;-74
2021/12/21 09:41:11;;;;;;;;;;;-1.70;94.40;;;;;;4947405;29;19936;-74
2021/12/21 09:43:36;;;;;;;;;;;-1.60;94.30;;;;;;4947249;29;19981;-74
2021/12/21 09:46:02;;;;;;;;;;;-1.40;94.10;;;;;;4963137;29;19958;-74
2021/12/21 09:48:28;;;;;;;;;;;-1.20;93.80;;;;;;4962893;28;19918;-74
2021/12/21 09:50:55;;;;;;;;;;;-1.00;93.70;;;;;;4963337;29;19917;-74
2021/12/21 09:53:22;;;;;;;;;;;-0.80;93.20;;;;;;4963271;29;19934;-73
2021/12/21 09:55:48;;;;;;;;;;;-0.70;92.80;;;;;;4962968;29;19906;-73
2021/12/21 09:58:14;;;;;;;;;;;-0.40;92.70;;;;;;4962883;28;19970;-73
2021/12/21 10:00:40;;;;;;;;;;;-0.30;92.40;;;;;;4963015;29;19967;-73
2021/12/21 10:03:09;;;;;;;;;;;0.00;92.40;;;;;;4930790;29;19938;-73
2021/12/21 10:05:39;;;;;;;;;;;0.10;92.20;;;;;;4962750;29;19906;-74
2021/12/21 10:08:12;;;;;;;;;;;0.40;91.70;;;;;;4947005;28;20199;-74
2021/12/21 10:10:49;;;;;;;;;;;0.70;91.00;;;;;;4963416;29;19906;-74
2021/12/21 10:13:16;;;;;;;;;;;0.90;90.10;;;;;;4947519;29;19906;-73
2021/12/21 10:15:47;;;;;;;;;;;1.10;90.00;;;;;;4962133;29;19937;-74
2021/12/21 10:18:13;;;;;;;;;;;1.20;88.30;;;;;;4947501;28;19910;-74
2021/12/21 10:20:43;;;;;;;;;;;1.50;88.50;;;;;;4962827;29;19921;-74
2021/12/21 10:23:14;;;;;;;;;;;1.90;87.30;;;;;;4964693;28;19906;-74
2021/12/21 10:25:45;;;;;;;;;;;2.20;85.20;;;;;;4962817;29;20162;-74
2021/12/21 10:28:11;;;;;;;;;;;2.40;82.90;;;;;;4963443;28;19973;-75
2021/12/21 10:30:50;;;;;;;;;;;2.80;81.10;;;;;;4962700;29;19910;-74
2021/12/21 10:33:15;;;;;;;;;;;3.10;79.50;;;;;;4963267;29;19906;-74
2021/12/21 10:35:41;;;;;;;;;;;3.50;77.60;;;;;;4963121;29;19957;-74
2021/12/21 10:38:07;;;;;;;;;;;4.30;74.40;;;;;;4964432;28;19911;-75
2021/12/21 10:40:32;;;;;;;;;;;5.00;68.40;;;;;;4963180;29;19906;-74
2021/12/21 10:43:03;;;;;;;;;;;6.30;65.20;;;;;;4964471;28;19929;-74
2021/12/21 10:45:39;;;;;;;;;;;7.50;59.20;;;;;;4962884;29;19906;-73
2021/12/21 10:48:16;;;;;;;;;;;8.70;55.70;;;;;;4962152;28;20081;-73
2021/12/21 10:50:45;;;;;;;;;;;9.20;52.40;;;;;;4966944;28;19993;-74
2021/12/21 10:53:23;;;;;;;;;;;9.90;49.80;;;;;;4937353;29;19925;-74
2021/12/21 10:56:02;;;;;;;;;;;10.40;48.20;;;;;;4968417;29;19906;-74
2021/12/21 10:58:28;;;;;;;;;;;9.70;49.10;;;;;;4967411;29;19917;-72
2021/12/21 11:00:56;;;;;;;;;;;9.60;49.00;;;;;;4966353;29;19913;-73
2021/12/21 11:03:33;;;;;;;;;;;9.30;49.30;;;;;;4967722;28;20117;-73
2021/12/21 11:06:09;;;;;;;;;;;9.20;50.00;;;;;;4971388;29;19910;-74
2021/12/21 11:08:42;;;;;;;;;;;9.10;49.50;;;;;;4972911;29;19910;-73
2021/12/21 11:11:30;;;;;;;;;;;8.70;50.80;;;;;;4972006;29;19907;-73
2021/12/21 11:14:00;;;;;;;;;;;9.00;50.60;;;;;;4958288;28;19973;-74
2021/12/21 11:16:40;;;;;;;;;;;8.30;52.70;;;;;;4961406;28;19906;-74
2021/12/21 11:19:06;;;;;;;;;;;7.80;53.90;;;;;;4953271;29;19934;-74
2021/12/21 11:21:32;;;;;;;;;;;7.70;54.50;;;;;;4967780;29;19906;-74
2021/12/21 11:24:00;;;;;;;;;;;7.50;54.50;;;;;;4970830;23;20021;-74
2021/12/21 11:26:26;;;;;;;;;;;7.20;55.20;;;;;;4974009;28;20120;-73
2021/12/21 11:28:52;;;;;;;;;;;6.70;57.00;;;;;;4969856;28;19912;-75
2021/12/21 11:31:17;;;;;;;;;;;6.70;57.00;;;;;;4965916;29;19925;-74
2021/12/21 11:33:44;;;;;;;;;;;6.60;57.70;;;;;;4934041;28;20198;-75
2021/12/21 11:38:56;;;;;;;;;;;6.20;59.40;;;;;;4966923;29;19925;-75
2021/12/21 11:41:22;;;;;;;;;;;5.80;61.30;;;;;;4967328;28;19906;-75
2021/12/21 11:43:59;;;;;;;;;;;5.60;62.80;;;;;;4965909;28;20014;-76
2021/12/21 11:46:33;;;;;;;;;;;5.40;63.20;;;;;;4965917;29;20197;-75
2021/12/21 11:49:01;;;;;;;;;;;5.10;64.60;;;;;;4963413;28;19915;-77
2021/12/21 11:51:27;;;;;;;;;;;5.00;66.40;;;;;;4993295;28;20196;-77
2021/12/21 11:53:53;;;;;;;;;;;5.00;66.00;;;;;;4955077;29;19980;-76
2021/12/21 11:56:22;;;;;;;;;;;5.00;66.60;;;;;;4948714;29;19906;-73
2021/12/21 11:58:52;;;;;;;;;;;5.10;66.30;;;;;;4962131;29;19982;-76
2021/12/21 12:01:22;;;;;;;;;;;5.10;65.80;;;;;;4984399;28;19946;-74
2021/12/21 12:04:08;;;;;;;;;;;5.30;65.30;;;;;;4952021;29;19987;-71
2021/12/21 12:06:50;;;;;;;;;;;5.40;64.80;;;;;;4956194;29;19919;-75
2021/12/21 12:09:26;;;;;;;;;;;5.50;65.10;;;;;;4963909;29;19977;-75
2021/12/21 12:11:53;;;;;;;;;;;6.30;61.70;;;;;;4960731;29;19915;-72
2021/12/21 12:14:21;;;;;;;;;;;6.30;62.60;;;;;;4963617;28;19958;-71
2021/12/21 12:16:57;;;;;;;;;;;6.80;59.80;;;;;;4965962;28;19975;-72
2021/12/21 12:19:33;;;;;;;;;;;7.00;59.30;;;;;;4957226;29;20020;-70
2021/12/21 12:22:06;;;;;;;;;;;7.80;57.20;;;;;;4962413;29;19906;-71
2021/12/21 12:24:39;;;;;;;;;;;8.70;54.20;;;;;;4963493;29;19918;-72
2021/12/21 12:27:19;;;;;;;;;;;9.70;50.80;;;;;;4965210;28;20201;-72
2021/12/21 12:29:48;;;;;;;;;;;9.80;50.10;;;;;;4964875;29;19973;-73
2021/12/21 12:32:13;;;;;;;;;;;9.80;49.70;;;;;;4965789;28;20228;-73
2021/12/21 12:34:39;;;;;;;;;;;10.30;49.10;;;;;;4939364;29;19973;-73
2021/12/21 12:37:19;;;;;;;;;;;10.50;47.70;;;;;;4961022;29;19906;-74
2021/12/21 12:39:46;;;;;;;;;;;9.70;48.70;;;;;;4996317;28;19911;-75
2021/12/21 12:42:22;;;;;;;;;;;8.60;51.70;;;;;;4966196;28;19907;-74
2021/12/21 12:44:55;;;;;;;;;;;7.50;54.70;;;;;;4977461;28;19918;-76
2021/12/21 12:47:21;;;;;;;;;;;6.60;57.70;;;;;;4946396;29;19907;-75
2021/12/21 12:49:49;;;;;;;;;;;5.80;60.90;;;;;;4960958;29;20111;-75
2021/12/21 12:52:24;;;;;;;;;;;5.20;64.70;;;;;;4956488;29;19952;-75
2021/12/21 12:54:52;;;;;;;;;;;4.70;67.70;;;;;;4964184;29;19949;-74
2021/12/21 12:57:35;;;;;;;;;;;4.30;69.60;;;;;;4965141;28;20223;-76
2021/12/21 13:00:19;;;;;;;;;;;4.00;71.60;;;;;;4994854;28;19906;-75
2021/12/21 13:02:57;;;;;;;;;;;3.60;73.90;;;;;;4996792;28;19961;-75
2021/12/21 13:05:25;;;;;;;;;;;3.30;75.70;;;;;;4952152;28;19943;-75
2021/12/21 13:07:51;;;;;;;;;;;3.30;76.30;;;;;;4963710;29;19909;-75
2021/12/21 13:10:16;;;;;;;;;;;3.10;77.30;;;;;;4964800;28;20276;-76
2021/12/21 13:12:42;;;;;;;;;;;2.90;78.50;;;;;;4964195;28;19941;-74
2021/12/21 13:15:08;;;;;;;;;;;3.00;78.90;;;;;;4963716;28;19906;-75
2021/12/21 13:17:34;;;;;;;;;;;2.70;81.10;;;;;;4964488;28;19965;-74
2021/12/21 13:20:00;;;;;;;;;;;2.60;81.60;;;;;;4963905;29;19907;-72
2021/12/21 13:22:26;;;;;;;;;;;2.40;83.20;;;;;;4965098;28;19977;-73
2021/12/21 13:24:52;;;;;;;;;;;2.20;84.50;;;;;;4963137;28;19910;-72
2021/12/21 13:27:20;;;;;;;;;;;2.20;85.10;;;;;;4963735;29;20287;-72
2021/12/21 13:29:46;;;;;;;;;;;2.30;84.40;;;;;;4964619;28;20121;-72
2021/12/21 13:32:15;;;;;;;;;;;2.20;84.60;;;;;;4962736;29;20240;-71
2021/12/21 13:34:41;;;;;;;;;;;2.10;85.30;;;;;;4955906;28;19918;-72
2021/12/21 13:37:11;;;;;;;;;;;2.00;85.80;;;;;;4975626;28;19906;-71
2021/12/21 13:39:43;;;;;;;;;;;1.90;85.90;;;;;;4995465;28;19906;-72
2021/12/21 13:42:15;;;;;;;;;;;1.90;86.40;;;;;;4964854;28;19983;-75
2021/12/21 13:44:42;;;;;;;;;;;1.80;86.90;;;;;;4995793;28;19906;-75
2021/12/21 13:47:19;;;;;;;;;;;1.80;86.80;;;;;;4996235;28;19934;-75
2021/12/21 13:50:04;;;;;;;;;;;1.70;86.80;;;;;;4995364;28;19906;-75
2021/12/21 13:52:42;;;;;;;;;;;1.60;86.90;;;;;;4992303;28;19960;-75
2021/12/21 13:55:26;;;;;;;;;;;1.60;87.00;;;;;;4979689;28;19912;-75
2021/12/21 13:57:53;;;;;;;;;;;1.60;87.20;;;;;;4964830;28;19918;-75
2021/12/21 14:00:19;;;;;;;;;;;1.50;87.40;;;;;;4964737;29;19913;-75
2021/12/21 14:02:51;;;;;;;;;;;1.50;87.50;;;;;;4995865;28;19907;-75
2021/12/21 14:05:19;;;;;;;;;;;1.40;87.60;;;;;;4986337;28;20296;-75
2021/12/21 14:07:47;;;;;;;;;;;1.50;87.10;;;;;;4981929;28;19934;-76
2021/12/21 14:10:22;;;;;;;;;;;1.40;87.00;;;;;;4978247;28;19906;-76
2021/12/21 14:13:00;;;;;;;;;;;1.40;87.30;;;;;;4964193;28;19913;-75
2021/12/21 14:15:43;;;;;;;;;;;1.40;87.60;;;;;;4963340;28;20006;-76
2021/12/21 14:18:19;;;;;;;;;;;1.30;87.80;;;;;;4962695;29;19914;-75
2021/12/21 14:20:46;;;;;;;;;;;1.30;88.00;;;;;;4995898;28;20113;-73
2021/12/21 14:23:19;;;;;;;;;;;1.30;88.00;;;;;;4995823;28;19906;-75
2021/12/21 14:25:45;;;;;;;;;;;1.30;88.20;;;;;;4966782;28;19917;-73
2021/12/21 14:28:12;;;;;;;;;;;1.20;87.80;;;;;;4968742;28;19913;-73
2021/12/21 14:30:37;;;;;;;;;;;1.20;88.00;;;;;;4968617;28;19938;-72
2021/12/21 14:33:27;;;;;;;;;;;1.20;87.90;;;;;;4967875;28;20105;-72
2021/12/21 14:35:53;;;;;;;;;;;1.20;87.90;;;;;;4994174;28;19970;-72
2021/12/21 14:38:19;;;;;;;;;;;1.20;87.70;;;;;;4999001;28;19914;-72
2021/12/21 14:40:47;;;;;;;;;;;1.20;87.40;;;;;;4968131;28;19913;-72
2021/12/21 14:43:39;;;;;;;;;;;1.10;87.60;;;;;;4968094;28;19922;-72
2021/12/21 14:46:04;;;;;;;;;;;1.10;87.60;;;;;;4967794;28;19945;-72
2021/12/21 14:48:30;;;;;;;;;;;1.00;88.10;;;;;;4968240;28;20105;-72
2021/12/21 14:51:08;;;;;;;;;;;1.00;87.80;;;;;;4968162;28;19906;-72
2021/12/21 14:53:44;;;;;;;;;;;1.00;88.10;;;;;;4998451;28;19910;-72
2021/12/21 14:56:12;;;;;;;;;;;0.90;88.40;;;;;;4964979;28;19929;-69
2021/12/21 14:58:38;;;;;;;;;;;0.80;88.90;;;;;;4959034;29;19915;-69
2021/12/21 15:01:05;;;;;;;;;;;0.80;89.10;;;;;;4948643;29;20176;-70
2021/12/21 15:03:40;;;;;;;;;;;0.70;89.60;;;;;;4948365;29;19906;-70
2021/12/21 15:06:06;;;;;;;;;;;0.70;89.80;;;;;;4948137;29;19915;-68
2021/12/21 15:08:33;;;;;;;;;;;0.70;90.10;;;;;;4954033;29;19913;-73
2021/12/21 15:10:59;;;;;;;;;;;0.60;90.10;;;;;;4967738;28;19906;-73
2021/12/21 15:13:25;;;;;;;;;;;0.50;90.20;;;;;;4966126;29;19944;-73
2021/12/21 15:15:51;;;;;;;;;;;0.50;90.70;;;;;;4967363;28;19906;-73
2021/12/21 15:18:17;;;;;;;;;;;0.50;90.40;;;;;;4966701;28;19918;-72
2021/12/21 15:20:43;;;;;;;;;;;0.40;90.60;;;;;;4966620;28;20224;-72
2021/12/21 15:23:08;;;;;;;;;;;0.40;91.00;;;;;;4966567;29;19906;-72
2021/12/21 15:25:34;;;;;;;;;;;0.40;90.80;;;;;;4965738;28;20140;-72
2021/12/21 15:28:00;;;;;;;;;;;0.30;90.80;;;;;;4957239;29;19946;-72
2021/12/21 15:30:26;;;;;;;;;;;0.30;90.80;;;;;;4957507;28;19954;-73
2021/12/21 15:32:52;;;;;;;;;;;0.20;90.90;;;;;;4962504;29;19978;-73
2021/12/21 15:35:19;;;;;;;;;;;0.10;91.10;;;;;;4962256;28;19917;-73
2021/12/21 15:37:47;;;;;;;;;;;0.10;91.30;;;;;;4979052;28;19910;-73
2021/12/21 15:40:14;;;;;;;;;;;0.10;91.50;;;;;;4977957;28;19907;-73